Time;durP1;ratioP1;P1;durP2;ratioP2;P2;SDS_P1;SDS_P2;PMS_P1;PMS_P2;Temp;Humidity;BMP_temperature;BMP_pressure;BME280_temperature;BME280_humidity;BME280_pressure;Samples;Min_cycle;Max_cycle;Signal;HPM_P1;HPM_P2
2022/09/10 00:01:50;;;;;;;1.30;0.60;;;22.80;91.20;;;;;;5052402;28;20025;-23
2022/09/10 00:04:17;;;;;;;1.20;0.47;;;22.80;91.20;;;;;;5052306;28;20065;-23
2022/09/10 00:06:43;;;;;;;1.38;0.28;;;22.80;91.30;;;;;;5052832;28;20032;-23
2022/09/10 00:09:11;;;;;;;1.17;0.45;;;22.80;91.30;;;;;;5053238;28;20025;-23
2022/09/10 00:11:39;;;;;;;0.57;0.40;;;22.80;91.30;;;;;;5052318;28;20040;-23
2022/09/10 00:14:10;;;;;;;3.53;0.40;;;22.80;91.30;;;;;;5052198;28;20083;-23
2022/09/10 00:16:36;;;;;;;1.08;0.30;;;22.80;91.30;;;;;;5052311;28;20025;-23
2022/09/10 00:19:02;;;;;;;1.85;0.50;;;22.70;91.30;;;;;;5052031;28;20029;-23
2022/09/10 00:21:28;;;;;;;1.13;0.43;;;22.70;91.30;;;;;;5052007;28;20031;-23
2022/09/10 00:23:55;;;;;;;1.10;0.30;;;22.70;91.40;;;;;;5034098;28;20033;-24
2022/09/10 00:26:23;;;;;;;1.33;0.40;;;22.70;91.40;;;;;;5052088;28;20072;-23
2022/09/10 00:28:51;;;;;;;1.70;0.50;;;22.70;91.40;;;;;;5051126;28;20021;-23
2022/09/10 00:31:18;;;;;;;1.70;0.50;;;22.70;91.40;;;;;;5051962;28;20029;-24
2022/09/10 00:33:44;;;;;;;1.85;0.40;;;22.70;91.40;;;;;;5051950;28;20021;-23
2022/09/10 00:36:22;;;;;;;0.80;0.30;;;22.70;91.40;;;;;;5051863;28;20035;-24
2022/09/10 00:38:49;;;;;;;0.70;0.40;;;22.70;91.40;;;;;;5052090;28;20092;-23
2022/09/10 00:41:16;;;;;;;1.30;0.43;;;22.70;91.40;;;;;;5051890;28;20040;-23
2022/09/10 00:43:47;;;;;;;1.48;0.40;;;22.70;91.40;;;;;;5052142;28;20029;-23
2022/09/10 00:46:28;;;;;;;1.00;0.40;;;22.70;91.40;;;;;;5052099;28;20028;-23
2022/09/10 00:48:55;;;;;;;1.88;0.40;;;22.70;91.40;;;;;;5051634;28;20050;-24
2022/09/10 00:51:22;;;;;;;1.33;0.55;;;22.70;91.40;;;;;;5051752;28;20028;-23
2022/09/10 00:53:49;;;;;;;1.20;0.50;;;22.70;91.40;;;;;;5052228;28;20029;-23
2022/09/10 00:56:15;;;;;;;1.17;0.32;;;22.70;91.40;;;;;;5052090;28;20108;-23
2022/09/10 00:58:43;;;;;;;1.00;0.50;;;22.70;91.40;;;;;;5051852;28;20025;-23
2022/09/10 01:01:09;;;;;;;0.60;0.30;;;22.60;91.40;;;;;;5051807;28;20036;-23
2022/09/10 01:03:35;;;;;;;1.23;0.40;;;22.70;91.50;;;;;;5051693;28;20062;-24
2022/09/10 01:06:02;;;;;;;0.68;0.25;;;22.60;91.40;;;;;;5051723;28;20025;-23
2022/09/10 01:08:27;;;;;;;1.00;0.30;;;22.60;91.50;;;;;;5051464;28;20033;-23
2022/09/10 01:11:05;;;;;;;1.10;0.45;;;22.60;91.50;;;;;;5051526;28;20033;-24
2022/09/10 01:13:35;;;;;;;1.10;0.30;;;22.60;91.50;;;;;;5051755;28;20032;-23
2022/09/10 01:16:07;;;;;;;2.47;0.38;;;22.60;91.50;;;;;;5051647;28;20028;-23
2022/09/10 01:19:17;;;;;;;1.30;0.40;;;22.60;91.50;;;;;;5051617;28;20029;-23
2022/09/10 01:21:53;;;;;;;1.05;0.40;;;22.60;91.50;;;;;;4990549;28;20033;-23
2022/09/10 01:24:19;;;;;;;1.85;0.40;;;22.60;91.50;;;;;;5051294;28;20025;-23
2022/09/10 01:27:32;;;;;;;1.00;0.30;;;22.60;91.50;;;;;;5051448;28;20032;-23
2022/09/10 01:30:09;;;;;;;1.17;0.38;;;22.60;91.60;;;;;;4975687;28;20440;-23
2022/09/10 01:32:49;;;;;;;2.00;0.30;;;22.60;91.60;;;;;;5051338;28;20025;-23
2022/09/10 01:35:39;;;;;;;0.77;0.30;;;22.60;91.60;;;;;;5033504;28;20501;-23
2022/09/10 01:38:13;;;;;;;0.95;0.30;;;22.60;91.60;;;;;;5050640;28;20033;-23
2022/09/10 01:40:39;;;;;;;0.67;0.30;;;22.50;91.60;;;;;;5052338;28;20021;-23
2022/09/10 01:43:07;;;;;;;0.75;0.38;;;22.60;91.70;;;;;;5054991;28;20044;-23
2022/09/10 01:45:41;;;;;;;1.20;0.40;;;22.50;91.70;;;;;;5055573;28;20024;-23
2022/09/10 01:48:38;;;;;;;0.93;0.40;;;22.50;91.70;;;;;;5055015;28;20499;-24
2022/09/10 01:51:41;;;;;;;1.10;0.43;;;22.60;91.80;;;;;;5054919;28;20025;-23
2022/09/10 01:54:35;;;;;;;1.52;0.30;;;22.50;91.80;;;;;;5055068;28;20036;-23
2022/09/10 01:57:33;;;;;;;1.15;0.32;;;22.50;91.80;;;;;;5055018;28;20108;-23
2022/09/10 02:00:08;;;;;;;1.30;0.40;;;22.50;91.90;;;;;;5054544;28;20597;-23
2022/09/10 02:02:54;;;;;;;1.50;0.55;;;22.50;91.90;;;;;;5054697;28;20436;-23
2022/09/10 02:05:22;;;;;;;1.50;0.40;;;22.50;92.00;;;;;;5054783;28;20083;-23
2022/09/10 02:07:58;;;;;;;0.68;0.28;;;22.50;92.00;;;;;;5054476;28;20090;-23
2022/09/10 02:10:24;;;;;;;1.20;0.32;;;22.50;92.00;;;;;;5054559;28;20075;-23
2022/09/10 02:12:50;;;;;;;0.80;0.30;;;22.50;92.00;;;;;;5054892;28;20029;-23
2022/09/10 02:15:17;;;;;;;1.13;0.30;;;22.50;92.00;;;;;;5054507;28;20052;-23
2022/09/10 02:17:45;;;;;;;1.42;0.40;;;22.40;92.10;;;;;;5054378;28;20071;-24
2022/09/10 02:20:13;;;;;;;2.20;0.40;;;22.40;92.10;;;;;;5054617;28;20513;-23
2022/09/10 02:22:43;;;;;;;0.68;0.35;;;22.40;92.10;;;;;;5054058;28;20028;-23
2022/09/10 02:25:09;;;;;;;1.63;0.40;;;22.40;92.10;;;;;;5054437;28;20025;-23
2022/09/10 02:27:35;;;;;;;2.35;0.45;;;22.40;92.20;;;;;;5054328;28;20031;-23
2022/09/10 02:30:01;;;;;;;2.00;0.25;;;22.40;92.20;;;;;;5053951;28;20021;-23
2022/09/10 02:32:27;;;;;;;0.80;0.30;;;22.40;92.20;;;;;;5054198;28;20032;-23
2022/09/10 02:34:53;;;;;;;1.20;0.38;;;22.40;92.20;;;;;;5054100;28;20032;-23
2022/09/10 02:37:19;;;;;;;1.27;0.30;;;22.40;92.30;;;;;;5053885;28;20017;-23
2022/09/10 02:39:45;;;;;;;2.08;0.50;;;22.40;92.30;;;;;;5053968;28;20393;-23
2022/09/10 02:42:16;;;;;;;0.65;0.30;;;22.40;92.30;;;;;;5054010;28;20021;-23
2022/09/10 02:44:42;;;;;;;2.03;0.52;;;22.40;92.30;;;;;;5053959;28;20057;-23
2022/09/10 02:47:07;;;;;;;0.90;0.50;;;22.40;92.30;;;;;;5053839;28;20106;-23
2022/09/10 02:49:33;;;;;;;0.80;0.40;;;22.40;92.30;;;;;;5053577;28;20140;-23
2022/09/10 02:52:01;;;;;;;1.17;0.50;;;22.40;92.30;;;;;;5053235;28;20382;-23
2022/09/10 02:54:27;;;;;;;0.60;0.30;;;22.40;92.30;;;;;;5053870;28;20028;-23
2022/09/10 02:56:53;;;;;;;0.55;0.30;;;22.40;92.30;;;;;;5053633;28;20104;-23
2022/09/10 02:59:18;;;;;;;0.85;0.30;;;22.40;92.30;;;;;;5053456;28;20475;-23
2022/09/10 03:01:44;;;;;;;1.17;0.35;;;22.40;92.30;;;;;;5053711;28;20100;-23
2022/09/10 03:04:10;;;;;;;1.27;0.35;;;22.40;92.30;;;;;;5053491;28;20029;-23
2022/09/10 03:06:37;;;;;;;1.65;0.40;;;22.40;92.40;;;;;;5053338;28;20052;-24
2022/09/10 03:09:03;;;;;;;0.90;0.30;;;22.30;92.40;;;;;;5053476;28;20028;-23
2022/09/10 03:11:29;;;;;;;1.27;0.40;;;22.40;92.40;;;;;;5053681;28;20382;-23
2022/09/10 03:13:54;;;;;;;1.05;0.30;;;22.30;92.40;;;;;;5053901;28;20036;-23
2022/09/10 03:16:20;;;;;;;0.68;0.30;;;22.40;92.80;;;;;;5053435;28;20025;-23
2022/09/10 03:18:46;;;;;;;0.60;0.20;;;22.30;92.40;;;;;;5052881;28;20526;-23
2022/09/10 03:21:21;;;;;;;2.97;0.30;;;22.30;92.40;;;;;;5053306;28;20047;-23
2022/09/10 03:23:48;;;;;;;1.48;0.45;;;22.30;92.40;;;;;;5053231;28;20029;-23
2022/09/10 03:26:17;;;;;;;1.25;0.32;;;22.30;92.40;;;;;;5053199;28;20056;-23
2022/09/10 03:28:44;;;;;;;2.15;0.40;;;22.30;92.40;;;;;;5053075;28;20029;-23
2022/09/10 03:31:10;;;;;;;0.85;0.25;;;22.30;92.50;;;;;;5053133;28;20509;-23
2022/09/10 03:33:36;;;;;;;0.80;0.28;;;22.30;92.50;;;;;;5055376;28;20036;-23
2022/09/10 03:36:03;;;;;;;0.93;0.30;;;22.30;92.50;;;;;;5060910;28;20041;-23
2022/09/10 03:38:28;;;;;;;0.77;0.30;;;22.30;92.50;;;;;;5061786;28;20025;-23
2022/09/10 03:40:54;;;;;;;1.42;0.30;;;22.20;92.50;;;;;;5053542;28;20402;-23
2022/09/10 03:43:21;;;;;;;1.88;0.50;;;22.30;92.50;;;;;;5053018;28;20021;-24
2022/09/10 03:45:50;;;;;;;1.25;0.32;;;22.30;92.60;;;;;;5053015;28;20021;-23
2022/09/10 03:48:17;;;;;;;1.25;0.38;;;22.30;92.60;;;;;;5052771;28;20036;-23
2022/09/10 03:50:44;;;;;;;0.68;0.30;;;22.20;92.90;;;;;;5053111;28;20481;-23
2022/09/10 03:53:13;;;;;;;1.40;0.47;;;22.20;92.50;;;;;;5053003;28;20029;-23
2022/09/10 03:55:42;;;;;;;2.15;0.65;;;22.20;92.60;;;;;;5052788;28;20020;-23
2022/09/10 03:58:08;;;;;;;2.55;0.40;;;22.20;92.60;;;;;;5052527;28;20078;-23
2022/09/10 04:00:34;;;;;;;0.73;0.30;;;22.20;92.60;;;;;;5052547;28;20104;-23
2022/09/10 04:03:00;;;;;;;1.90;0.40;;;22.20;92.60;;;;;;5051581;28;20028;-23
2022/09/10 04:05:26;;;;;;;0.65;0.30;;;22.20;92.60;;;;;;5053333;28;20031;-23
2022/09/10 04:07:53;;;;;;;1.58;0.50;;;22.20;92.60;;;;;;5052818;28;20122;-23
2022/09/10 04:10:20;;;;;;;4.80;0.60;;;22.20;92.60;;;;;;5052574;28;20596;-23
2022/09/10 04:12:47;;;;;;;0.95;0.40;;;22.20;92.60;;;;;;5052317;28;20032;-23
2022/09/10 04:15:14;;;;;;;1.10;0.40;;;22.20;92.60;;;;;;5052333;28;20021;-23
2022/09/10 04:17:40;;;;;;;1.20;0.35;;;22.20;92.60;;;;;;5052532;28;20403;-23
2022/09/10 04:20:06;;;;;;;3.80;0.50;;;22.10;92.50;;;;;;5052301;28;20536;-23
2022/09/10 04:22:33;;;;;;;2.40;0.40;;;22.20;92.60;;;;;;5034303;28;20055;-23
2022/09/10 04:24:59;;;;;;;1.42;0.22;;;22.10;92.50;;;;;;5052320;28;20025;-23
2022/09/10 04:27:25;;;;;;;1.30;0.40;;;22.10;92.60;;;;;;5052375;28;20544;-23
2022/09/10 04:29:51;;;;;;;1.05;0.38;;;22.10;92.60;;;;;;5052162;28;20047;-23
2022/09/10 04:32:17;;;;;;;1.05;0.40;;;22.10;92.60;;;;;;5052028;28;20033;-23
2022/09/10 04:34:43;;;;;;;1.98;0.43;;;22.10;92.60;;;;;;5052236;28;20497;-23
2022/09/10 04:37:09;;;;;;;0.55;0.30;;;22.10;92.60;;;;;;5052092;28;20017;-23
2022/09/10 04:39:35;;;;;;;1.42;0.40;;;22.10;92.60;;;;;;5051829;28;20060;-23
2022/09/10 04:42:01;;;;;;;2.83;0.32;;;22.10;92.60;;;;;;5051985;28;20415;-24
2022/09/10 04:44:28;;;;;;;2.13;0.40;;;22.10;92.60;;;;;;5052021;28;20112;-24
2022/09/10 04:46:54;;;;;;;1.02;0.43;;;22.10;92.60;;;;;;5052161;28;20029;-23
2022/09/10 04:49:20;;;;;;;1.17;0.30;;;22.10;92.60;;;;;;5051841;28;20017;-23
2022/09/10 04:51:46;;;;;;;1.40;0.50;;;22.10;92.60;;;;;;5051907;28;20151;-23
2022/09/10 04:54:13;;;;;;;1.45;0.30;;;22.10;92.60;;;;;;5051939;28;20025;-23
2022/09/10 04:56:39;;;;;;;1.13;0.43;;;22.10;92.60;;;;;;5051877;28;20017;-23
2022/09/10 04:59:05;;;;;;;0.65;0.20;;;22.00;92.60;;;;;;5052115;28;20386;-23
2022/09/10 05:01:30;;;;;;;1.63;0.17;;;22.10;92.60;;;;;;5033986;28;20024;-23
2022/09/10 05:03:56;;;;;;;0.73;0.35;;;22.10;92.60;;;;;;5051764;28;20053;-23
2022/09/10 05:06:22;;;;;;;1.02;0.30;;;22.10;92.60;;;;;;5051871;28;20482;-23
2022/09/10 05:08:48;;;;;;;0.35;0.20;;;22.10;92.60;;;;;;5051536;28;20048;-23
2022/09/10 05:11:13;;;;;;;1.13;0.52;;;22.10;92.60;;;;;;5051574;28;20017;-23
2022/09/10 05:13:39;;;;;;;1.02;0.30;;;22.10;92.60;;;;;;5052087;28;20395;-23
2022/09/10 05:16:05;;;;;;;1.23;0.40;;;22.10;92.60;;;;;;5055081;28;20512;-23
2022/09/10 05:18:31;;;;;;;1.08;0.40;;;22.00;92.60;;;;;;5055599;28;20043;-23
2022/09/10 05:20:56;;;;;;;1.38;0.50;;;22.00;92.60;;;;;;5055650;28;20444;-23
2022/09/10 05:23:22;;;;;;;0.25;0.20;;;22.00;92.60;;;;;;5055612;28;20033;-23
2022/09/10 05:25:48;;;;;;;0.95;0.20;;;22.00;92.60;;;;;;5055592;28;20020;-24
2022/09/10 05:28:15;;;;;;;2.03;0.38;;;22.00;92.60;;;;;;5055311;28;20082;-23
2022/09/10 05:30:41;;;;;;;2.42;0.35;;;22.00;92.60;;;;;;5055832;28;20033;-23
2022/09/10 05:33:06;;;;;;;1.02;0.40;;;22.00;92.60;;;;;;5055519;28;20123;-23
2022/09/10 05:35:33;;;;;;;0.68;0.35;;;21.90;92.60;;;;;;5055566;28;20029;-23
2022/09/10 05:37:59;;;;;;;0.40;0.20;;;22.00;92.60;;;;;;5055418;28;20550;-23
2022/09/10 05:40:27;;;;;;;1.20;0.30;;;22.00;92.60;;;;;;5055399;28;20033;-23
2022/09/10 05:42:54;;;;;;;1.98;0.30;;;22.00;92.70;;;;;;5056213;28;20085;-23
2022/09/10 05:45:22;;;;;;;1.38;0.50;;;22.00;92.60;;;;;;5055407;28;20017;-23
2022/09/10 05:47:48;;;;;;;1.83;0.30;;;21.90;92.60;;;;;;5055030;28;20044;-23
2022/09/10 05:50:14;;;;;;;1.23;0.40;;;21.90;92.60;;;;;;5054835;28;20029;-23
2022/09/10 05:52:39;;;;;;;1.20;0.43;;;22.00;92.60;;;;;;5055185;28;20017;-23
2022/09/10 05:55:06;;;;;;;1.08;0.30;;;22.00;92.60;;;;;;5055018;28;20386;-23
2022/09/10 05:57:31;;;;;;;1.50;0.30;;;22.00;92.60;;;;;;5054741;28;20074;-23
2022/09/10 05:59:58;;;;;;;1.20;0.30;;;21.90;92.60;;;;;;5054732;28;20022;-22
2022/09/10 06:02:25;;;;;;;1.75;0.35;;;21.90;92.60;;;;;;5054953;28;20067;-23
2022/09/10 06:04:51;;;;;;;0.95;0.40;;;21.90;92.60;;;;;;5054954;28;20032;-23
2022/09/10 06:07:16;;;;;;;0.68;0.30;;;21.90;93.00;;;;;;5055192;28;20029;-23
2022/09/10 06:09:42;;;;;;;0.85;0.30;;;21.90;92.70;;;;;;5055587;28;20104;-23
2022/09/10 06:12:08;;;;;;;1.05;0.40;;;21.90;92.70;;;;;;5055077;28;20512;-23
2022/09/10 06:14:34;;;;;;;1.33;0.47;;;21.90;92.70;;;;;;5054786;28;20057;-23
2022/09/10 06:17:00;;;;;;;1.17;0.20;;;21.90;92.70;;;;;;5054408;28;20032;-23
2022/09/10 06:19:26;;;;;;;1.42;0.20;;;21.90;92.70;;;;;;5054488;28;20033;-23
2022/09/10 06:21:51;;;;;;;1.20;0.50;;;21.90;92.70;;;;;;5054524;28;20025;-23
2022/09/10 06:24:21;;;;;;;1.08;0.20;;;21.80;92.70;;;;;;5054341;28;20029;-23
2022/09/10 06:26:50;;;;;;;1.05;0.40;;;21.80;92.70;;;;;;5053456;28;20017;-23
2022/09/10 06:29:18;;;;;;;0.85;0.30;;;21.80;92.70;;;;;;5054686;28;20383;-23
2022/09/10 06:31:45;;;;;;;0.70;0.30;;;21.80;92.70;;;;;;5054371;28;20394;-23
2022/09/10 06:34:11;;;;;;;1.77;0.43;;;21.80;92.80;;;;;;5054955;28;20021;-23
2022/09/10 06:36:37;;;;;;;3.10;0.40;;;21.80;92.80;;;;;;5054243;28;20032;-23
2022/09/10 06:39:02;;;;;;;1.50;0.40;;;21.80;92.80;;;;;;5054657;28;20025;-22
2022/09/10 06:41:29;;;;;;;1.42;0.45;;;21.80;92.80;;;;;;5053984;28;20048;-23
2022/09/10 06:43:56;;;;;;;0.90;0.40;;;21.80;92.80;;;;;;5054079;28;20508;-23
2022/09/10 06:46:22;;;;;;;0.50;0.20;;;21.80;92.80;;;;;;5053916;28;20456;-22
2022/09/10 06:48:48;;;;;;;0.55;0.30;;;21.80;93.10;;;;;;5053731;28;20032;-23
2022/09/10 06:51:15;;;;;;;0.63;0.20;;;21.80;92.80;;;;;;5035679;28;20021;-23
2022/09/10 06:53:42;;;;;;;0.90;0.30;;;21.80;92.80;;;;;;5053856;28;20032;-23
2022/09/10 06:56:12;;;;;;;0.90;0.30;;;21.80;92.80;;;;;;5053882;28;20040;-23
2022/09/10 06:58:38;;;;;;;0.77;0.38;;;21.80;92.80;;;;;;5053481;28;20036;-23
2022/09/10 07:01:07;;;;;;;1.45;0.30;;;21.80;92.80;;;;;;5054132;28;20025;-23
2022/09/10 07:03:33;;;;;;;2.10;0.65;;;21.80;92.80;;;;;;5053661;28;20025;-23
2022/09/10 07:06:07;;;;;;;0.43;0.20;;;21.80;92.80;;;;;;5053390;28;20532;-23
2022/09/10 07:08:33;;;;;;;0.60;0.30;;;21.80;92.80;;;;;;5053752;28;20509;-23
2022/09/10 07:11:01;;;;;;;0.88;0.30;;;21.80;93.10;;;;;;5053542;28;20029;-22
2022/09/10 07:13:26;;;;;;;1.40;0.30;;;21.80;92.80;;;;;;5035648;28;20494;-23
2022/09/10 07:15:52;;;;;;;0.45;0.20;;;21.80;92.80;;;;;;5035735;28;20039;-23
2022/09/10 07:18:18;;;;;;;0.60;0.25;;;21.80;92.80;;;;;;5053297;28;20160;-23
2022/09/10 07:20:45;;;;;;;0.68;0.30;;;21.80;92.80;;;;;;5053111;28;20031;-22
2022/09/10 07:23:12;;;;;;;0.85;0.30;;;21.80;92.80;;;;;;5053303;28;20021;-22
2022/09/10 07:25:38;;;;;;;1.17;0.30;;;21.80;92.80;;;;;;5053908;28;20375;-23
2022/09/10 07:28:05;;;;;;;0.85;0.38;;;21.80;92.80;;;;;;5060221;28;20025;-22
2022/09/10 07:30:32;;;;;;;1.15;0.50;;;21.80;92.80;;;;;;5059824;28;20032;-23
2022/09/10 07:32:57;;;;;;;0.73;0.20;;;21.80;92.80;;;;;;5052898;28;20032;-23
2022/09/10 07:35:24;;;;;;;1.55;0.30;;;21.80;92.80;;;;;;5053212;28;20021;-23
2022/09/10 07:37:50;;;;;;;0.98;0.40;;;21.80;92.80;;;;;;5053123;28;20059;-23
2022/09/10 07:40:16;;;;;;;2.28;0.32;;;21.80;92.80;;;;;;5035679;28;20051;-23
2022/09/10 07:42:42;;;;;;;0.95;0.32;;;21.80;92.80;;;;;;5052778;28;20470;-23
2022/09/10 07:45:14;;;;;;;0.63;0.20;;;21.80;92.80;;;;;;5053919;28;20024;-23
2022/09/10 07:47:43;;;;;;;1.05;0.30;;;21.80;92.80;;;;;;5052821;28;20074;-22
2022/09/10 07:50:09;;;;;;;0.45;0.13;;;21.80;92.80;;;;;;5052997;28;20467;-23
2022/09/10 07:52:35;;;;;;;0.52;0.20;;;21.80;92.80;;;;;;5052843;28;20029;-23
2022/09/10 07:55:01;;;;;;;1.40;0.30;;;21.80;92.80;;;;;;5053004;28;20177;-23
2022/09/10 07:57:27;;;;;;;2.35;0.20;;;21.80;92.80;;;;;;5053285;28;20470;-23
2022/09/10 07:59:53;;;;;;;0.75;0.20;;;21.90;92.70;;;;;;5052492;28;20025;-23
2022/09/10 08:02:20;;;;;;;0.70;0.30;;;21.90;92.70;;;;;;5052728;28;20498;-23
2022/09/10 08:04:46;;;;;;;1.13;0.30;;;22.00;92.60;;;;;;5053185;28;20021;-23
2022/09/10 08:07:12;;;;;;;0.65;0.20;;;22.00;92.60;;;;;;5052896;28;20029;-23
2022/09/10 08:09:38;;;;;;;1.20;0.40;;;22.00;92.30;;;;;;5052965;28;20482;-23
2022/09/10 08:12:06;;;;;;;1.83;0.30;;;21.80;92.50;;;;;;5052350;28;20044;-23
2022/09/10 08:14:32;;;;;;;1.08;0.38;;;21.70;92.60;;;;;;5052786;28;20071;-22
2022/09/10 08:16:57;;;;;;;1.95;0.30;;;21.80;92.60;;;;;;5052274;28;20530;-23
2022/09/10 08:19:23;;;;;;;1.00;0.30;;;21.80;92.50;;;;;;5052218;28;20501;-23
2022/09/10 08:21:49;;;;;;;1.40;0.35;;;21.90;92.50;;;;;;5052195;28;20083;-23
2022/09/10 08:24:15;;;;;;;2.30;0.32;;;21.90;92.40;;;;;;5052526;28;20029;-23
2022/09/10 08:26:41;;;;;;;2.00;0.50;;;22.00;92.30;;;;;;5035578;28;20028;-23
2022/09/10 08:29:07;;;;;;;1.45;0.30;;;22.00;92.30;;;;;;5051951;28;20099;-23
2022/09/10 08:31:33;;;;;;;1.70;0.43;;;22.10;92.30;;;;;;5051946;28;20021;-23
2022/09/10 08:34:00;;;;;;;2.65;0.40;;;22.10;92.30;;;;;;5052061;28;20021;-23
2022/09/10 08:36:26;;;;;;;11.10;1.10;;;22.10;92.30;;;;;;5052098;28;20482;-22
2022/09/10 08:38:53;;;;;;;7.85;0.65;;;21.90;91.50;;;;;;5052461;28;20114;-22
2022/09/10 08:41:39;;;;;;;4.50;0.68;;;21.70;91.60;;;;;;5052357;28;20390;-22
2022/09/10 08:44:16;;;;;;;4.95;0.68;;;21.70;91.80;;;;;;5051403;28;20041;-22
2022/09/10 08:46:54;;;;;;;3.63;0.57;;;21.70;91.90;;;;;;5052608;28;20047;-23
2022/09/10 08:49:48;;;;;;;4.03;0.50;;;21.80;91.80;;;;;;5053711;28;20212;-22
2022/09/10 08:52:37;;;;;;;2.05;0.60;;;21.90;91.80;;;;;;5058373;28;20024;-22
2022/09/10 08:55:17;;;;;;;4.00;0.50;;;21.90;91.80;;;;;;5058542;28;20174;-23
2022/09/10 08:57:54;;;;;;;1.55;0.70;;;21.90;91.80;;;;;;5058988;28;20017;-22
2022/09/10 09:00:23;;;;;;;4.47;0.50;;;21.90;91.80;;;;;;5058167;28;20024;-22
2022/09/10 09:03:01;;;;;;;2.75;0.65;;;21.90;91.80;;;;;;5058221;28;20021;-22
2022/09/10 09:05:33;;;;;;;3.17;0.60;;;21.90;91.90;;;;;;5058446;28;20013;-22
2022/09/10 09:07:59;;;;;;;5.13;0.50;;;21.90;91.90;;;;;;5058159;28;20025;-22
2022/09/10 09:10:25;;;;;;;2.78;0.50;;;21.90;91.90;;;;;;5058037;28;20036;-22
2022/09/10 09:13:17;;;;;;;4.70;0.50;;;21.90;92.00;;;;;;5058331;28;20025;-22
2022/09/10 09:15:56;;;;;;;3.38;0.80;;;21.90;92.00;;;;;;5040332;28;20025;-22
2022/09/10 09:18:24;;;;;;;1.85;0.60;;;21.90;92.00;;;;;;5058212;28;20021;-22
2022/09/10 09:20:55;;;;;;;2.65;0.60;;;21.90;92.00;;;;;;5058391;28;20021;-22
2022/09/10 09:23:22;;;;;;;2.78;0.50;;;21.90;92.10;;;;;;5058016;28;20037;-23
2022/09/10 09:26:14;;;;;;;2.40;0.50;;;21.90;92.10;;;;;;5058184;28;20021;-22
2022/09/10 09:28:49;;;;;;;2.35;0.50;;;21.90;92.10;;;;;;5053855;28;20029;-22
2022/09/10 09:31:27;;;;;;;2.47;0.73;;;21.90;92.10;;;;;;5058925;28;20021;-22
2022/09/10 09:33:59;;;;;;;3.05;0.50;;;21.80;92.10;;;;;;5059694;28;20029;-22
2022/09/10 09:36:33;;;;;;;6.15;0.60;;;21.80;92.10;;;;;;5040529;28;20029;-23
2022/09/10 09:39:02;;;;;;;1.70;0.45;;;21.80;92.20;;;;;;5058415;28;20104;-22
2022/09/10 09:41:41;;;;;;;2.47;0.40;;;21.80;92.20;;;;;;5058891;28;20052;-23
2022/09/10 09:44:44;;;;;;;1.42;0.50;;;21.80;92.20;;;;;;5057946;28;20068;-22
2022/09/10 09:47:10;;;;;;;1.60;0.70;;;21.80;92.20;;;;;;5028167;28;20037;-22
2022/09/10 09:49:36;;;;;;;1.77;0.40;;;21.80;92.20;;;;;;5058255;28;20017;-22
2022/09/10 09:52:37;;;;;;;1.17;0.40;;;21.80;92.20;;;;;;5058000;28;20036;-24
2022/09/10 09:55:10;;;;;;;2.00;0.52;;;21.80;92.20;;;;;;5053880;28;20029;-22
2022/09/10 09:57:36;;;;;;;6.77;0.70;;;21.80;92.20;;;;;;5058660;28;20017;-23
2022/09/10 10:00:36;;;;;;;1.98;0.50;;;21.80;92.20;;;;;;5058959;28;20032;-22
2022/09/10 10:03:26;;;;;;;2.38;0.60;;;21.80;92.20;;;;;;5055065;28;20078;-22
2022/09/10 10:06:07;;;;;;;1.13;0.40;;;21.70;92.20;;;;;;5042989;28;20415;-22
2022/09/10 10:08:38;;;;;;;2.05;0.55;;;21.80;92.30;;;;;;5054519;28;20029;-23
2022/09/10 10:11:05;;;;;;;2.00;0.50;;;21.70;92.30;;;;;;5054546;28;20075;-22
2022/09/10 10:13:44;;;;;;;1.92;0.45;;;21.80;92.30;;;;;;5054392;28;20029;-23
2022/09/10 10:16:21;;;;;;;2.30;0.50;;;21.80;92.30;;;;;;5054973;28;20024;-23
2022/09/10 10:18:47;;;;;;;2.00;0.52;;;21.80;92.30;;;;;;5054297;28;20045;-23
2022/09/10 10:21:17;;;;;;;2.03;0.43;;;21.80;92.30;;;;;;5054211;28;20547;-23
2022/09/10 10:23:43;;;;;;;1.58;0.40;;;21.80;92.60;;;;;;5054165;28;20033;-23
2022/09/10 10:26:19;;;;;;;1.27;0.43;;;21.80;92.30;;;;;;5054205;28;20139;-23
2022/09/10 10:28:55;;;;;;;4.35;0.70;;;21.80;92.30;;;;;;5054782;28;20025;-22
2022/09/10 10:31:22;;;;;;;0.95;0.30;;;21.90;92.30;;;;;;5054757;28;20017;-23
2022/09/10 10:34:01;;;;;;;0.80;0.30;;;21.90;92.20;;;;;;5054337;28;20488;-22
2022/09/10 10:36:33;;;;;;;2.13;0.32;;;21.90;92.20;;;;;;5054029;28;20445;-22
2022/09/10 10:39:40;;;;;;;0.90;0.28;;;22.00;92.40;;;;;;5036856;28;20029;-22
2022/09/10 10:42:24;;;;;;;1.35;0.38;;;22.10;92.00;;;;;;5053993;28;20094;-22
2022/09/10 10:45:09;;;;;;;1.73;0.50;;;22.10;92.00;;;;;;5054030;28;20025;-22
2022/09/10 10:47:35;;;;;;;;;;;22.20;91.90;;;;;;5054582;28;20025;-22
2022/09/10 10:50:18;;;;;;;1.75;0.43;;;22.20;91.90;;;;;;5053943;28;19904;-22
2022/09/10 10:53:02;;;;;;;1.25;0.43;;;22.20;91.90;;;;;;5053813;28;20552;-22
2022/09/10 10:55:38;;;;;;;2.13;0.37;;;22.20;91.90;;;;;;5054111;28;20546;-22
2022/09/10 10:58:39;;;;;;;1.60;0.60;;;22.20;91.80;;;;;;5057288;28;20108;-22
2022/09/10 11:01:19;;;;;;;0.88;0.38;;;22.30;91.80;;;;;;5026010;28;20043;-23
2022/09/10 11:04:18;;;;;;;2.38;0.50;;;22.30;91.80;;;;;;5054132;28;20047;-22
2022/09/10 11:06:48;;;;;;;0.88;0.38;;;22.30;91.70;;;;;;5053966;28;20474;-23
2022/09/10 11:09:22;;;;;;;1.45;0.43;;;22.30;91.70;;;;;;5053406;28;20037;-23
2022/09/10 11:11:54;;;;;;;2.33;0.43;;;22.30;91.60;;;;;;5053579;28;20025;-22
2022/09/10 11:14:37;;;;;;;1.35;0.30;;;22.30;91.70;;;;;;5053423;28;20071;-22
2022/09/10 11:17:11;;;;;;;2.55;0.38;;;22.30;91.70;;;;;;5053734;28;20029;-22
2022/09/10 11:20:17;;;;;;;1.58;0.32;;;22.30;91.60;;;;;;5053365;28;20493;-23
2022/09/10 11:23:14;;;;;;;1.00;0.40;;;22.40;91.60;;;;;;5019214;28;20035;-22
2022/09/10 11:25:58;;;;;;;1.17;0.50;;;22.40;91.60;;;;;;5044039;28;20040;-23
2022/09/10 11:28:54;;;;;;;1.65;0.30;;;22.50;91.50;;;;;;5053484;28;20490;-23
2022/09/10 11:31:31;;;;;;;0.75;0.30;;;22.50;91.50;;;;;;5006339;28;20041;-23
2022/09/10 11:34:17;;;;;;;0.65;0.20;;;22.60;91.50;;;;;;5053388;28;20532;-23
2022/09/10 11:36:53;;;;;;;3.00;0.77;;;22.60;91.40;;;;;;5053066;28;20488;-23
2022/09/10 11:39:33;;;;;;;1.83;0.50;;;22.40;88.80;;;;;;5052769;28;20120;-22
2022/09/10 11:42:05;;;;;;;2.15;0.73;;;22.20;88.90;;;;;;5052943;28;20486;-22
2022/09/10 11:44:57;;;;;;;2.90;0.63;;;22.20;89.10;;;;;;5052923;28;20025;-22
2022/09/10 11:47:38;;;;;;;4.25;0.93;;;22.20;89.30;;;;;;5052653;28;20017;-22
2022/09/10 11:50:22;;;;;;;2.20;0.60;;;22.30;89.60;;;;;;5052589;28;20411;-22
2022/09/10 11:52:49;;;;;;;3.60;0.68;;;22.30;89.60;;;;;;5052635;28;20025;-22
2022/09/10 11:55:16;;;;;;;3.25;0.60;;;22.40;89.80;;;;;;5052605;28;20525;-23
2022/09/10 11:57:57;;;;;;;3.50;0.60;;;22.40;89.90;;;;;;5052327;28;20021;-23
2022/09/10 12:00:24;;;;;;;2.38;0.57;;;22.50;90.00;;;;;;5034639;28;20021;-23
2022/09/10 12:02:54;;;;;;;2.70;0.60;;;22.60;89.90;;;;;;5052622;28;20068;-23
2022/09/10 12:05:30;;;;;;;1.45;0.40;;;22.60;90.00;;;;;;5052638;28;20382;-23
2022/09/10 12:08:34;;;;;;;3.33;0.70;;;22.60;90.00;;;;;;5052627;28;20037;-22
2022/09/10 12:11:31;;;;;;;2.70;0.57;;;22.60;90.00;;;;;;5052746;28;20031;-23
2022/09/10 12:13:57;;;;;;;1.67;0.60;;;22.60;90.00;;;;;;5052883;28;20071;-25
2022/09/10 12:16:33;;;;;;;4.75;0.73;;;22.60;90.10;;;;;;5052440;28;20021;-23
2022/09/10 12:19:02;;;;;;;2.08;0.45;;;22.70;90.10;;;;;;5052252;28;20139;-23
2022/09/10 12:21:33;;;;;;;2.22;0.70;;;22.70;90.20;;;;;;5052182;28;20363;-23
2022/09/10 12:24:02;;;;;;;2.45;0.68;;;22.70;90.20;;;;;;5051617;28;20049;-22
2022/09/10 12:26:28;;;;;;;1.58;0.50;;;22.70;90.10;;;;;;5052767;28;20378;-23
2022/09/10 12:28:58;;;;;;;2.00;0.38;;;22.70;90.20;;;;;;5052483;28;20032;-23
2022/09/10 12:31:24;;;;;;;1.90;0.65;;;22.70;90.20;;;;;;5052088;28;20562;-23
2022/09/10 12:33:49;;;;;;;1.70;0.50;;;22.70;90.20;;;;;;5052277;28;20108;-23
2022/09/10 12:36:27;;;;;;;2.10;0.60;;;22.80;90.20;;;;;;5051971;28;20237;-23
2022/09/10 12:39:27;;;;;;;1.67;0.80;;;22.80;90.20;;;;;;5051670;28;20040;-22
2022/09/10 12:41:54;;;;;;;5.30;0.65;;;22.70;87.70;;;;;;5034227;28;20025;-23
2022/09/10 12:44:49;;;;;;;1.85;0.50;;;22.60;86.60;;;;;;5051781;28;20406;-23
2022/09/10 12:47:14;;;;;;;;;;;22.70;86.30;;;;;;5031521;28;20036;-22
2022/09/10 12:50:03;;;;;;;4.07;0.60;;;22.60;86.60;;;;;;5051668;28;19905;-23
2022/09/10 12:52:47;;;;;;;2.63;0.60;;;22.60;87.00;;;;;;5052452;28;20111;-23
2022/09/10 12:55:51;;;;;;;2.65;0.70;;;22.60;87.60;;;;;;5052240;28;20025;-23
2022/09/10 12:58:25;;;;;;;2.05;0.60;;;22.70;87.80;;;;;;5052149;28;20033;-23
2022/09/10 13:00:53;;;;;;;;;;;22.70;87.90;;;;;;5052462;28;20055;-23
2022/09/10 13:03:23;;;;;;;4.88;0.70;;;22.70;88.00;;;;;;5051836;28;19958;-23
2022/09/10 13:05:54;;;;;;;2.30;0.60;;;22.80;88.10;;;;;;5034008;28;20474;-23
2022/09/10 13:08:24;;;;;;;2.17;0.63;;;22.80;88.20;;;;;;5051538;28;20051;-23
2022/09/10 13:10:58;;;;;;;2.92;0.52;;;22.80;88.30;;;;;;5033767;28;20029;-23